Time;durP1;ratioP1;P1;durP2;ratioP2;P2;SDS_P1;SDS_P2;PMS_P1;PMS_P2;Temp;Humidity;BMP_temperature;BMP_pressure;BME280_temperature;BME280_humidity;BME280_pressure;Samples;Min_cycle;Max_cycle;Signal;HPM_P1;HPM_P2
2022/05/25 04:00:30;;;;;;;9.57;8.77;;;11.20;99.90;;;;;;5859608;23;20287;-70
2022/05/25 04:02:59;;;;;;;8.30;7.60;;;11.30;99.90;;;;;;4950677;28;20209;-69
2022/05/25 04:05:26;;;;;;;8.07;7.35;;;11.30;99.90;;;;;;4960482;28;20292;-69
2022/05/25 04:07:54;;;;;;;9.10;8.20;;;11.30;99.90;;;;;;4960650;28;20284;-69
2022/05/25 04:10:22;;;;;;;8.35;7.50;;;11.40;99.90;;;;;;4951881;28;20201;-69
2022/05/25 04:12:48;;;;;;;8.60;6.82;;;11.40;99.90;;;;;;4937391;29;20209;-69
2022/05/25 04:15:17;;;;;;;8.05;7.32;;;11.50;99.90;;;;;;4944861;28;20205;-69
2022/05/25 04:17:45;;;;;;;7.80;7.10;;;11.50;99.90;;;;;;4931915;29;20662;-70
2022/05/25 04:20:14;;;;;;;8.45;7.75;;;11.50;99.90;;;;;;4936417;28;20568;-70
2022/05/25 04:22:41;;;;;;;8.68;7.97;;;11.60;99.90;;;;;;4942323;29;20256;-70
2022/05/25 04:25:10;;;;;;;8.27;7.57;;;11.70;99.90;;;;;;4948201;28;20210;-71
2022/05/25 04:27:37;;;;;;;8.65;7.90;;;12.00;99.90;;;;;;4942243;29;20258;-70
2022/05/25 04:30:05;;;;;;;8.67;7.97;;;12.30;99.90;;;;;;4948069;28;20291;-70
2022/05/25 04:32:32;;;;;;;8.40;7.70;;;12.50;99.90;;;;;;4942262;29;20508;-70
2022/05/25 04:35:00;;;;;;;9.17;8.23;;;12.60;99.90;;;;;;4935991;28;20537;-69
2022/05/25 04:40:13;;;;;;;6.63;6.23;;;13.70;99.90;;;;;;4946441;29;20509;-70
2022/05/25 04:42:39;;;;;;;8.20;7.60;;;14.40;99.90;;;;;;4931094;29;20523;-70
2022/05/25 04:45:08;;;;;;;7.20;6.80;;;14.90;99.90;;;;;;4947740;28;20479;-70
2022/05/25 04:47:37;;;;;;;6.80;6.40;;;15.50;99.90;;;;;;4943394;29;20576;-70
2022/05/25 04:50:07;;;;;;;6.50;6.10;;;16.10;99.90;;;;;;4948656;28;20993;-70
2022/05/25 04:52:33;;;;;;;6.97;6.50;;;16.40;99.90;;;;;;4942697;29;20484;-70
2022/05/25 04:55:00;;;;;;;7.30;6.90;;;16.60;99.90;;;;;;4932399;28;20492;-70
2022/05/25 04:57:27;;;;;;;6.60;6.27;;;17.00;99.90;;;;;;4940665;29;20555;-70
2022/05/25 04:59:55;;;;;;;7.27;6.87;;;17.30;99.90;;;;;;4923882;29;20466;-70
2022/05/25 05:02:22;;;;;;;7.50;7.10;;;17.70;99.90;;;;;;4940267;29;20572;-70
2022/05/25 05:04:49;;;;;;;7.70;7.20;;;17.90;99.90;;;;;;4935433;28;20999;-70
2022/05/25 05:07:17;;;;;;;6.97;6.57;;;18.10;99.90;;;;;;4938998;29;20477;-70
2022/05/25 05:09:46;;;;;;;7.97;7.47;;;18.30;99.90;;;;;;4916311;29;20529;-70
2022/05/25 05:12:14;;;;;;;7.67;7.27;;;18.60;99.90;;;;;;4932393;29;20551;-70
2022/05/25 05:14:42;;;;;;;8.70;8.10;;;18.80;99.90;;;;;;4928343;29;20928;-70
2022/05/25 05:17:09;;;;;;;7.90;7.23;;;18.70;99.90;;;;;;4935756;29;20473;-70
2022/05/25 05:19:35;;;;;;;7.50;7.10;;;18.90;99.90;;;;;;4926755;28;20600;-70
2022/05/25 05:22:02;;;;;;;7.37;6.97;;;19.20;99.90;;;;;;4933977;29;20493;-70
2022/05/25 05:24:32;;;;;;;7.10;6.80;;;19.40;99.90;;;;;;4933586;28;20523;-70
2022/05/25 05:26:59;;;;;;;7.07;6.67;;;19.50;99.90;;;;;;4930724;29;20471;-70
2022/05/25 05:29:30;;;;;;;7.70;7.30;;;19.50;99.90;;;;;;4935487;28;20551;-70
2022/05/25 05:31:57;;;;;;;8.00;7.50;;;19.50;99.90;;;;;;4921476;29;20488;-70
2022/05/25 05:34:27;;;;;;;6.73;6.37;;;19.40;99.90;;;;;;4938205;29;20876;-70
2022/05/25 05:36:57;;;;;;;7.30;6.90;;;19.30;99.90;;;;;;4934281;29;20511;-70
2022/05/25 05:39:27;;;;;;;7.07;6.67;;;19.20;99.90;;;;;;4938425;29;20884;-70
2022/05/25 05:42:00;;;;;;;7.73;7.30;;;19.10;99.90;;;;;;4934782;29;20488;-70
2022/05/25 05:44:30;;;;;;;8.23;7.83;;;19.20;99.90;;;;;;4941885;29;20468;-70
2022/05/25 05:46:59;;;;;;;7.30;6.90;;;18.90;99.90;;;;;;4944023;28;20915;-70
2022/05/25 05:49:26;;;;;;;7.27;6.87;;;18.50;99.90;;;;;;4933450;29;20474;-70
2022/05/25 05:51:53;;;;;;;8.00;7.60;;;18.20;99.90;;;;;;4942215;28;20539;-70
2022/05/25 05:54:20;;;;;;;7.07;6.67;;;18.20;99.90;;;;;;4940739;28;20489;-70
2022/05/25 05:56:47;;;;;;;7.33;6.93;;;18.50;99.90;;;;;;4936838;29;20477;-70
2022/05/25 05:59:15;;;;;;;7.07;6.67;;;19.20;99.90;;;;;;4943483;29;20461;-71
2022/05/25 06:01:44;;;;;;;6.87;6.47;;;20.00;99.90;;;;;;4939709;29;20490;-69
2022/05/25 06:04:10;;;;;;;6.57;6.27;;;20.40;99.90;;;;;;4934455;29;20548;-69
2022/05/25 06:06:37;;;;;;;6.80;6.50;;;20.60;99.90;;;;;;4943510;29;20480;-69
2022/05/25 06:09:04;;;;;;;6.60;6.30;;;20.90;99.90;;;;;;4949258;29;20934;-72
2022/05/25 06:11:32;;;;;;;6.20;5.70;;;21.40;99.90;;;;;;4946057;28;21162;-69
2022/05/25 06:13:59;;;;;;;6.77;6.47;;;21.80;99.90;;;;;;4943020;28;20472;-70
2022/05/25 06:19:33;;;;;;;6.47;6.00;;;22.60;99.90;;;;;;4941669;29;20464;-71
2022/05/25 06:22:03;;;;;;;5.57;5.40;;;23.00;99.90;;;;;;4935345;29;20586;-70
2022/05/25 06:24:34;;;;;;;6.70;6.37;;;23.00;99.90;;;;;;4935424;29;20844;-70
2022/05/25 06:27:01;;;;;;;5.60;5.40;;;22.90;99.90;;;;;;4940547;29;20475;-70
2022/05/25 06:29:27;;;;;;;5.20;5.10;;;23.10;99.90;;;;;;4937700;29;20506;-71
2022/05/25 06:31:55;;;;;;;5.63;5.33;;;23.40;99.90;;;;;;4937706;28;20855;-71
2022/05/25 06:34:22;;;;;;;6.03;5.63;;;23.40;99.90;;;;;;4933695;29;20478;-73
2022/05/25 06:36:49;;;;;;;5.50;5.30;;;23.60;99.90;;;;;;4940126;29;20489;-71
2022/05/25 06:39:16;;;;;;;5.90;5.70;;;23.90;99.90;;;;;;4946089;28;20469;-71
2022/05/25 06:41:43;;;;;;;5.50;5.40;;;24.20;99.90;;;;;;4916546;29;20494;-71
2022/05/25 06:44:10;;;;;;;6.17;5.87;;;24.00;99.90;;;;;;4921787;29;20477;-70
2022/05/25 06:46:36;;;;;;;6.03;5.73;;;24.10;99.90;;;;;;4936066;29;21029;-71
2022/05/25 06:49:04;;;;;;;6.33;6.00;;;24.50;99.90;;;;;;4935760;29;20472;-71
2022/05/25 06:51:33;;;;;;;5.07;4.90;;;25.10;99.90;;;;;;4935914;29;20498;-71
2022/05/25 06:54:00;;;;;;;5.57;5.37;;;25.40;99.30;;;;;;4936173;29;20493;-71
2022/05/25 06:56:27;;;;;;;5.43;5.13;;;25.10;98.10;;;;;;4944736;29;20902;-71
2022/05/25 06:58:54;;;;;;;4.80;4.70;;;24.90;98.40;;;;;;4929414;29;21056;-69
2022/05/25 07:01:21;;;;;;;5.50;5.00;;;24.90;98.20;;;;;;4937626;29;20555;-70
2022/05/25 07:03:48;;;;;;;5.27;5.07;;;24.90;97.80;;;;;;4947141;28;20962;-69
2022/05/25 07:06:18;;;;;;;5.00;4.80;;;25.00;97.80;;;;;;4933642;29;20480;-70
2022/05/25 07:08:45;;;;;;;5.50;5.00;;;25.30;97.60;;;;;;4941361;29;20475;-69
2022/05/25 07:11:12;;;;;;;3.77;3.70;;;25.30;96.20;;;;;;4928487;29;20499;-69
2022/05/25 07:13:40;;;;;;;4.50;4.40;;;25.40;96.00;;;;;;4938559;29;20476;-70
2022/05/25 07:16:10;;;;;;;4.40;4.30;;;25.80;95.50;;;;;;4942123;29;20472;-71
2022/05/25 07:18:37;;;;;;;3.90;3.70;;;25.90;95.20;;;;;;4946355;28;20464;-71
2022/05/25 07:21:07;;;;;;;3.30;3.30;;;26.40;94.70;;;;;;4931800;28;20537;-70
2022/05/25 07:23:35;;;;;;;3.07;2.97;;;26.20;92.70;;;;;;4944128;29;20560;-70
2022/05/25 07:26:02;;;;;;;3.00;3.00;;;25.90;92.60;;;;;;4945650;28;20472;-71
2022/05/25 07:28:29;;;;;;;3.10;3.00;;;25.80;92.80;;;;;;4942936;28;20472;-70
2022/05/25 07:31:02;;;;;;;2.30;2.20;;;26.00;92.60;;;;;;4929847;29;20499;-70
2022/05/25 07:33:29;;;;;;;2.20;2.03;;;25.80;91.40;;;;;;4937011;29;20833;-70
2022/05/25 07:35:55;;;;;;;2.93;2.57;;;25.20;90.40;;;;;;4945857;28;20535;-71
2022/05/25 07:38:22;;;;;;;2.70;2.60;;;24.60;91.40;;;;;;4934600;28;20485;-70
2022/05/25 07:40:50;;;;;;;2.47;2.47;;;24.60;91.90;;;;;;4930506;29;20488;-71
2022/05/25 07:43:20;;;;;;;3.20;3.13;;;24.40;91.00;;;;;;4932482;29;20491;-71
2022/05/25 07:45:47;;;;;;;2.57;2.57;;;23.40;91.50;;;;;;4931120;29;20481;-70
2022/05/25 07:48:15;;;;;;;1.93;1.90;;;23.20;92.90;;;;;;4941240;29;20880;-70
2022/05/25 07:50:43;;;;;;;1.80;1.80;;;22.60;92.10;;;;;;4940324;29;20489;-70
2022/05/25 07:55:54;;;;;;;2.20;2.10;;;22.20;93.20;;;;;;4936584;29;20831;-69
2022/05/25 07:58:21;;;;;;;2.10;2.00;;;22.20;93.40;;;;;;4940894;28;20575;-70
2022/05/25 08:00:49;;;;;;;2.13;2.13;;;22.20;94.00;;;;;;4937295;28;20488;-70
2022/05/25 08:06:00;;;;;;;2.37;2.33;;;21.90;93.30;;;;;;4945865;29;20445;-70
2022/05/25 08:08:27;;;;;;;2.50;2.50;;;21.70;94.40;;;;;;4934853;29;20471;-70
2022/05/25 08:11:00;;;;;;;1.97;1.97;;;21.70;94.30;;;;;;4942235;28;20494;-70
2022/05/25 08:13:27;;;;;;;2.20;2.10;;;21.70;95.30;;;;;;4931584;29;20491;-70
2022/05/25 08:15:54;;;;;;;2.10;1.90;;;22.10;94.30;;;;;;4937332;29;20534;-70
2022/05/25 08:18:21;;;;;;;2.10;2.10;;;22.40;93.80;;;;;;4942322;28;20478;-70
2022/05/25 08:20:48;;;;;;;2.13;2.03;;;22.40;93.60;;;;;;4933448;29;20806;-69
2022/05/25 08:23:17;;;;;;;1.90;1.80;;;22.10;94.20;;;;;;4940790;29;20479;-69
2022/05/25 08:25:44;;;;;;;2.00;1.90;;;21.60;94.30;;;;;;4929762;29;20473;-69
2022/05/25 08:28:13;;;;;;;1.70;1.70;;;21.50;94.70;;;;;;4937074;28;20473;-70
2022/05/25 08:30:41;;;;;;;1.90;1.80;;;21.50;95.30;;;;;;4943469;29;20552;-71
2022/05/25 08:33:08;;;;;;;1.80;1.80;;;21.40;94.30;;;;;;4935783;28;20558;-70
2022/05/25 08:35:35;;;;;;;1.90;1.80;;;21.20;94.60;;;;;;4941823;28;20483;-70
2022/05/25 08:38:03;;;;;;;2.57;2.37;;;21.20;95.60;;;;;;4933395;29;20840;-70
2022/05/25 08:40:32;;;;;;;2.00;1.90;;;21.50;95.80;;;;;;4939978;29;20501;-70
2022/05/25 08:43:03;;;;;;;1.97;1.87;;;21.80;94.00;;;;;;4942076;29;20553;-70
2022/05/25 08:45:36;;;;;;;3.27;3.17;;;21.60;95.30;;;;;;4937221;29;20461;-70
2022/05/25 08:48:05;;;;;;;2.40;2.30;;;21.70;95.80;;;;;;4934060;29;20659;-70
2022/05/25 08:50:32;;;;;;;3.00;2.20;;;21.70;95.20;;;;;;4940435;28;20464;-70
2022/05/25 08:53:01;;;;;;;1.57;1.50;;;21.50;95.10;;;;;;4938528;29;20481;-70
2022/05/25 08:55:48;;;;;;;1.63;1.40;;;21.40;93.60;;;;;;4945406;28;20472;-70
2022/05/25 08:58:15;;;;;;;1.67;1.67;;;21.30;93.00;;;;;;4946708;28;20476;-69
2022/05/25 09:00:46;;;;;;;1.50;1.50;;;21.10;92.10;;;;;;4936548;28;20504;-70
2022/05/25 09:03:23;;;;;;;1.50;1.50;;;20.80;93.70;;;;;;4933547;29;20766;-69
2022/05/25 09:05:54;;;;;;;1.20;1.20;;;20.80;93.20;;;;;;4926670;29;20475;-70
2022/05/25 09:08:30;;;;;;;1.10;1.00;;;20.80;93.10;;;;;;4940813;29;20473;-70
2022/05/25 09:11:00;;;;;;;1.57;1.47;;;20.80;93.90;;;;;;4939724;28;20489;-70
2022/05/25 09:13:33;;;;;;;1.00;1.00;;;20.80;94.40;;;;;;4938322;29;20516;-70
2022/05/25 09:16:17;;;;;;;1.10;1.10;;;21.00;93.50;;;;;;4925664;29;20473;-70
2022/05/25 09:18:53;;;;;;;1.60;1.30;;;21.20;93.10;;;;;;4933907;29;20472;-70
2022/05/25 09:21:22;;;;;;;1.70;1.70;;;21.10;93.40;;;;;;4931076;29;20865;-70
2022/05/25 09:23:52;;;;;;;1.20;1.20;;;21.00;93.90;;;;;;4940614;28;20487;-70
2022/05/25 09:26:19;;;;;;;2.30;1.43;;;21.00;94.60;;;;;;4931941;29;20554;-70
2022/05/25 09:28:51;;;;;;;1.43;1.37;;;20.90;94.50;;;;;;4937194;28;20465;-70
2022/05/25 09:31:25;;;;;;;1.70;1.60;;;20.70;93.70;;;;;;4926117;29;20493;-70
2022/05/25 09:33:57;;;;;;;1.40;1.40;;;20.60;94.30;;;;;;4932951;29;20524;-71
2022/05/25 09:36:30;;;;;;;1.37;1.37;;;20.70;95.10;;;;;;4935801;28;20474;-71
2022/05/25 09:39:04;;;;;;;1.40;1.30;;;20.70;94.20;;;;;;4932984;29;20477;-69
2022/05/25 09:41:32;;;;;;;1.37;1.37;;;20.30;94.40;;;;;;4940711;28;20637;-69
2022/05/25 09:44:01;;;;;;;2.00;1.70;;;20.00;95.10;;;;;;4933075;29;20885;-70
2022/05/25 09:46:32;;;;;;;1.30;1.30;;;19.90;95.50;;;;;;4933093;29;20509;-69
2022/05/25 09:49:02;;;;;;;1.67;1.67;;;20.00;96.40;;;;;;4933956;29;20473;-70
2022/05/25 09:51:35;;;;;;;1.70;1.53;;;20.10;95.90;;;;;;4935685;29;20489;-70
2022/05/25 09:54:06;;;;;;;1.60;1.50;;;20.00;96.00;;;;;;4941975;28;20496;-70
2022/05/25 09:56:38;;;;;;;1.83;1.70;;;19.90;96.30;;;;;;4942252;29;20995;-70
2022/05/25 09:59:07;;;;;;;1.83;1.73;;;20.00;97.00;;;;;;4949210;28;20467;-70
2022/05/25 10:01:43;;;;;;;1.20;1.20;;;20.20;95.60;;;;;;4930041;29;20928;-69
2022/05/25 10:04:12;;;;;;;0.90;0.90;;;20.20;95.00;;;;;;4939297;29;20456;-69
2022/05/25 10:06:50;;;;;;;1.97;1.50;;;20.20;96.00;;;;;;4933558;28;20464;-71
2022/05/25 10:09:20;;;;;;;1.00;1.00;;;20.20;96.30;;;;;;4935492;28;20500;-72
2022/05/25 10:11:49;;;;;;;1.63;1.40;;;20.10;95.70;;;;;;4933628;29;20908;-72
2022/05/25 10:14:24;;;;;;;3.20;1.43;;;19.90;96.00;;;;;;4936407;28;20485;-71
2022/05/25 10:16:54;;;;;;;1.40;1.40;;;19.80;96.20;;;;;;4935883;29;20947;-69
2022/05/25 10:19:22;;;;;;;1.50;1.40;;;19.60;96.10;;;;;;4934675;28;20477;-70
2022/05/25 10:21:52;;;;;;;1.37;1.27;;;19.60;96.40;;;;;;4944161;28;20481;-70
2022/05/25 10:24:25;;;;;;;1.50;1.50;;;19.50;96.80;;;;;;4943216;28;20516;-70
2022/05/25 10:26:54;;;;;;;1.53;1.53;;;19.40;97.60;;;;;;4938809;28;20469;-69
2022/05/25 10:37:58;;;;;;;1.40;1.40;;;19.80;95.80;;;;;;4933005;29;20460;-70
2022/05/25 10:40:26;;;;;;;1.60;1.60;;;19.90;96.30;;;;;;4936524;28;20458;-70
2022/05/25 10:42:58;;;;;;;0.90;0.90;;;19.90;94.50;;;;;;4934284;29;20469;-70
2022/05/25 10:45:33;;;;;;;0.87;0.87;;;19.90;94.80;;;;;;4949843;29;20540;-69
2022/05/25 10:48:09;;;;;;;1.23;1.23;;;19.80;95.40;;;;;;4940989;28;20469;-70
2022/05/25 10:50:45;;;;;;;1.13;1.13;;;19.80;95.50;;;;;;4949186;29;20477;-70
2022/05/25 10:53:27;;;;;;;0.90;0.90;;;19.70;95.50;;;;;;4951445;28;20481;-70
2022/05/25 10:55:58;;;;;;;1.30;1.30;;;19.50;95.50;;;;;;4918141;29;20466;-70
2022/05/25 10:58:39;;;;;;;1.50;1.50;;;19.50;95.40;;;;;;4948717;29;20469;-70
2022/05/25 11:01:23;;;;;;;1.03;1.03;;;19.50;95.00;;;;;;4934579;29;21018;-70
2022/05/25 11:04:26;;;;;;;1.47;1.00;;;19.60;95.40;;;;;;4928830;29;20457;-71
2022/05/25 11:07:04;;;;;;;1.10;1.10;;;19.80;95.60;;;;;;4909453;28;20473;-69
2022/05/25 11:09:48;;;;;;;0.80;0.80;;;20.10;93.70;;;;;;4942378;29;20479;-70
2022/05/25 11:12:24;;;;;;;0.90;0.90;;;20.20;93.00;;;;;;4950939;29;20491;-70
2022/05/25 11:15:02;;;;;;;1.00;0.87;;;20.20;93.10;;;;;;4939904;28;20575;-70
2022/05/25 11:17:46;;;;;;;1.10;1.10;;;20.20;93.70;;;;;;4935540;29;20524;-68
2022/05/25 11:20:25;;;;;;;0.73;0.73;;;20.10;93.40;;;;;;4938399;29;20551;-69
2022/05/25 11:23:07;;;;;;;1.30;1.10;;;20.30;94.00;;;;;;4934991;29;20461;-69
2022/05/25 11:25:50;;;;;;;0.80;0.80;;;20.60;94.30;;;;;;4948535;29;20478;-69
2022/05/25 11:28:21;;;;;;;0.93;0.83;;;20.80;93.70;;;;;;4946597;28;20523;-69
2022/05/25 11:31:06;;;;;;;0.93;0.93;;;20.80;93.00;;;;;;4945449;28;20497;-69
2022/05/25 11:33:52;;;;;;;2.13;1.13;;;20.90;94.00;;;;;;4942335;29;20501;-68
2022/05/25 11:36:32;;;;;;;1.10;1.00;;;21.20;92.70;;;;;;4942505;29;20469;-69
2022/05/25 11:39:05;;;;;;;0.77;0.77;;;21.30;92.80;;;;;;4935013;29;20540;-69
2022/05/25 11:41:38;;;;;;;0.80;0.80;;;21.30;93.00;;;;;;4944399;28;20525;-69
2022/05/25 11:44:35;;;;;;;0.87;0.60;;;21.30;92.20;;;;;;4946959;28;20626;-68
2022/05/25 11:47:16;;;;;;;0.80;0.80;;;21.20;91.70;;;;;;4916297;29;20478;-69
2022/05/25 11:50:03;;;;;;;0.60;0.60;;;20.90;91.50;;;;;;4935820;29;20494;-69
2022/05/25 11:53:08;;;;;;;0.60;0.60;;;20.90;91.70;;;;;;4937137;28;20536;-69
2022/05/25 11:55:43;;;;;;;0.60;0.60;;;20.70;91.70;;;;;;4945026;28;20492;-68
2022/05/25 11:58:31;;;;;;;0.83;0.83;;;20.80;92.60;;;;;;4944918;28;20468;-69
2022/05/25 12:01:02;;;;;;;0.70;0.70;;;21.00;92.50;;;;;;4935062;28;20872;-69
2022/05/25 12:03:55;;;;;;;0.70;0.70;;;21.10;92.30;;;;;;4932896;29;20864;-69
2022/05/25 12:06:49;;;;;;;0.83;0.70;;;21.30;92.30;;;;;;4940413;29;20469;-68
2022/05/25 12:09:27;;;;;;;0.80;0.80;;;21.40;91.30;;;;;;4938468;28;20919;-68
2022/05/25 12:12:04;;;;;;;0.90;0.90;;;21.40;91.10;;;;;;4924719;29;20486;-68
2022/05/25 12:14:49;;;;;;;0.70;0.70;;;21.40;91.50;;;;;;4915785;29;20498;-68
2022/05/25 12:17:21;;;;;;;0.50;0.50;;;21.40;91.90;;;;;;4926712;29;20461;-68
2022/05/25 12:19:49;;;;;;;0.80;0.77;;;21.40;92.20;;;;;;4931762;29;20629;-68
2022/05/25 12:22:19;;;;;;;0.70;0.70;;;21.40;91.80;;;;;;4934573;29;20482;-68
2022/05/25 12:24:51;;;;;;;0.50;0.50;;;21.30;91.60;;;;;;4926000;29;20466;-68
2022/05/25 12:27:21;;;;;;;1.43;0.70;;;21.30;91.60;;;;;;4916060;29;20477;-67
2022/05/25 12:29:50;;;;;;;1.67;0.57;;;21.40;92.10;;;;;;4924196;29;20625;-67
2022/05/25 12:32:18;;;;;;;2.10;0.70;;;21.30;91.60;;;;;;4934824;29;20489;-68
2022/05/25 12:34:47;;;;;;;0.90;0.90;;;21.30;91.10;;;;;;4933051;29;20652;-68
2022/05/25 12:37:36;;;;;;;0.80;0.80;;;21.30;91.20;;;;;;4915505;29;20521;-68
2022/05/25 12:40:05;;;;;;;0.73;0.67;;;21.20;91.00;;;;;;4922571;29;20521;-68
2022/05/25 12:42:42;;;;;;;0.37;0.37;;;21.30;90.80;;;;;;4926381;29;20486;-68
2022/05/25 12:50:57;;;;;;;0.80;0.80;;;21.60;90.40;;;;;;4921782;29;20492;-68
2022/05/25 12:53:33;;;;;;;0.53;0.53;;;21.80;90.70;;;;;;4939791;29;20496;-68
2022/05/25 12:56:03;;;;;;;1.80;0.50;;;21.80;90.40;;;;;;4930055;29;20516;-68
2022/05/25 12:58:36;;;;;;;0.80;0.80;;;21.80;89.70;;;;;;4943717;29;20554;-67
2022/05/25 13:01:06;;;;;;;1.53;0.60;;;21.80;89.50;;;;;;4919491;29;21009;-70
2022/05/25 13:04:02;;;;;;;0.70;0.70;;;21.90;90.00;;;;;;4942912;28;20897;-69
2022/05/25 13:07:02;;;;;;;0.70;0.70;;;21.80;89.10;;;;;;4935420;29;20557;-69
2022/05/25 13:09:40;;;;;;;3.50;1.07;;;21.70;89.40;;;;;;4932716;29;20458;-69
2022/05/25 13:12:55;;;;;;;1.00;1.00;;;21.70;89.00;;;;;;4943094;29;20477;-69
2022/05/25 13:15:46;;;;;;;1.00;1.00;;;21.80;89.60;;;;;;4919252;28;20483;-69
2022/05/25 13:18:48;;;;;;;0.83;0.73;;;21.70;88.80;;;;;;4946468;29;20860;-71
2022/05/25 13:21:36;;;;;;;0.70;0.70;;;21.60;88.90;;;;;;4951925;29;20538;-70
2022/05/25 13:24:33;;;;;;;0.80;0.80;;;21.40;90.00;;;;;;4952517;28;20488;-69
2022/05/25 13:27:25;;;;;;;0.60;0.60;;;21.30;89.40;;;;;;4949607;29;20484;-69
2022/05/25 13:30:17;;;;;;;1.17;1.10;;;21.20;89.00;;;;;;4945141;29;20465;-70
2022/05/25 13:32:50;;;;;;;1.10;1.10;;;21.30;90.00;;;;;;4925008;29;20595;-68
2022/05/25 13:35:48;;;;;;;1.27;1.27;;;21.40;90.60;;;;;;4937498;29;20559;-68
2022/05/25 13:38:29;;;;;;;1.40;1.40;;;21.50;90.60;;;;;;4873888;29;20563;-68
2022/05/25 13:41:03;;;;;;;1.03;1.00;;;21.40;89.90;;;;;;4940229;28;20556;-70
2022/05/25 13:43:55;;;;;;;1.33;0.90;;;21.30;88.10;;;;;;4931028;29;20576;-70
2022/05/25 13:46:33;;;;;;;0.90;0.90;;;21.20;90.00;;;;;;4921241;29;20469;-68
2022/05/25 13:49:00;;;;;;;1.40;1.10;;;21.30;89.70;;;;;;4927738;29;20470;-69
2022/05/25 13:51:27;;;;;;;1.50;1.40;;;21.40;90.10;;;;;;4937301;29;20490;-69
2022/05/25 13:53:54;;;;;;;1.23;1.23;;;21.50;90.20;;;;;;4933395;28;20486;-69
2022/05/25 13:56:25;;;;;;;1.60;1.50;;;21.60;90.20;;;;;;4926001;29;20470;-68
2022/05/25 13:58:58;;;;;;;1.17;1.17;;;21.60;90.30;;;;;;4930507;29;20465;-69
2022/05/25 14:01:25;;;;;;;1.83;1.73;;;21.70;90.70;;;;;;4940566;28;20509;-69
2022/05/25 14:03:57;;;;;;;1.73;1.63;;;21.60;90.20;;;;;;4929997;29;20476;-69
2022/05/25 14:06:24;;;;;;;1.80;1.80;;;21.60;90.90;;;;;;4932229;29;20525;-69
2022/05/25 14:11:41;;;;;;;2.10;2.00;;;21.50;90.90;;;;;;4933148;29;21069;-69
2022/05/25 14:14:20;;;;;;;2.23;2.13;;;21.50;91.00;;;;;;4937617;28;20938;-69
2022/05/25 14:16:50;;;;;;;1.70;1.70;;;21.50;91.60;;;;;;4933060;29;20476;-69
2022/05/25 14:19:22;;;;;;;1.90;1.90;;;21.50;91.60;;;;;;4937256;28;20473;-69
2022/05/25 14:21:51;;;;;;;1.40;1.40;;;21.60;91.40;;;;;;4942663;29;20527;-69
2022/05/25 14:24:20;;;;;;;1.67;1.67;;;21.80;90.80;;;;;;4937058;29;20532;-69
2022/05/25 14:26:50;;;;;;;1.80;1.70;;;21.90;90.90;;;;;;4931939;29;20465;-67
2022/05/25 14:29:22;;;;;;;1.60;1.57;;;21.90;90.40;;;;;;4931389;29;20478;-69
2022/05/25 14:31:52;;;;;;;1.63;1.53;;;21.80;90.60;;;;;;4929322;29;20565;-67
2022/05/25 14:34:22;;;;;;;1.23;1.23;;;21.70;90.50;;;;;;4936112;29;20529;-67
2022/05/25 14:36:52;;;;;;;2.50;1.60;;;21.40;90.50;;;;;;4933721;29;20473;-67
2022/05/25 14:39:25;;;;;;;1.37;1.37;;;21.30;90.50;;;;;;4939299;29;20513;-67
2022/05/25 14:41:54;;;;;;;1.40;1.30;;;21.30;90.90;;;;;;4938198;29;20524;-67
2022/05/25 14:44:41;;;;;;;4.27;1.47;;;21.30;90.70;;;;;;4939388;28;20896;-68
2022/05/25 14:47:18;;;;;;;1.17;1.17;;;21.30;90.50;;;;;;4938952;29;20523;-68
2022/05/25 14:49:55;;;;;;;1.40;1.30;;;21.30;90.80;;;;;;4930586;29;20473;-67
2022/05/25 14:52:24;;;;;;;2.67;1.00;;;21.30;90.50;;;;;;4929708;28;20570;-68
2022/05/25 14:54:52;;;;;;;0.90;0.90;;;21.30;90.50;;;;;;4931445;29;20485;-69
2022/05/25 14:57:19;;;;;;;0.80;0.80;;;21.40;89.80;;;;;;4929989;29;20469;-69
2022/05/25 14:59:52;;;;;;;0.80;0.80;;;21.70;87.20;;;;;;4929669;29;20469;-69
2022/05/25 15:02:33;;;;;;;1.97;1.07;;;21.90;85.50;;;;;;4932648;29;20965;-69
2022/05/25 15:05:00;;;;;;;1.23;1.23;;;22.10;85.30;;;;;;4929735;29;20469;-69
2022/05/25 15:07:28;;;;;;;0.80;0.80;;;22.20;86.40;;;;;;4933451;29;20624;-68
2022/05/25 15:10:08;;;;;;;1.80;0.90;;;22.40;86.30;;;;;;4938454;29;20978;-68
2022/05/25 15:12:44;;;;;;;0.90;0.90;;;22.20;83.30;;;;;;4929208;29;20498;-69
2022/05/25 15:18:30;;;;;;;0.77;0.77;;;22.20;80.80;;;;;;4935069;29;20872;-68
2022/05/25 15:20:58;;;;;;;1.17;0.87;;;22.20;80.70;;;;;;4920124;29;20481;-68
2022/05/25 15:23:28;;;;;;;0.90;0.90;;;22.00;82.00;;;;;;4931445;29;20469;-69
2022/05/25 15:25:55;;;;;;;1.00;1.00;;;21.90;82.00;;;;;;4937620;29;20604;-69
2022/05/25 15:28:31;;;;;;;1.03;1.00;;;22.00;82.90;;;;;;4936045;29;20470;-69
2022/05/25 15:31:01;;;;;;;0.90;0.83;;;22.10;82.80;;;;;;4933234;29;20560;-69
2022/05/25 15:33:30;;;;;;;1.00;1.00;;;22.20;83.00;;;;;;4933465;29;20529;-68
2022/05/25 15:36:02;;;;;;;1.90;1.07;;;22.00;82.20;;;;;;4935800;29;20493;-68
2022/05/25 15:38:30;;;;;;;1.40;1.17;;;21.80;83.70;;;;;;4935768;29;20879;-68
2022/05/25 15:40:57;;;;;;;1.00;1.00;;;21.60;83.20;;;;;;4934223;29;20548;-68
2022/05/25 15:43:25;;;;;;;1.00;1.00;;;21.30;82.70;;;;;;4931330;29;21234;-68
2022/05/25 15:45:52;;;;;;;1.00;1.00;;;21.20;83.60;;;;;;4933953;29;20469;-68
2022/05/25 15:48:24;;;;;;;0.90;0.90;;;21.10;85.40;;;;;;4931496;29;20537;-68
2022/05/25 15:50:51;;;;;;;0.93;0.93;;;21.00;86.70;;;;;;4935003;29;20564;-69
2022/05/25 15:53:19;;;;;;;1.10;1.10;;;21.00;87.80;;;;;;4939861;29;20474;-69
2022/05/25 15:55:46;;;;;;;1.10;1.10;;;20.90;87.90;;;;;;4939322;29;20872;-68
2022/05/25 15:58:13;;;;;;;1.00;1.00;;;20.90;87.70;;;;;;4934798;29;20476;-68
2022/05/25 16:00:43;;;;;;;1.30;1.20;;;20.70;87.10;;;;;;4931288;29;20507;-68
2022/05/25 16:03:12;;;;;;;0.80;0.80;;;20.60;87.80;;;;;;4933106;29;20473;-67
2022/05/25 16:05:41;;;;;;;0.77;0.77;;;20.50;86.80;;;;;;4930093;29;21661;-67
2022/05/25 16:10:52;;;;;;;0.70;0.70;;;20.30;87.80;;;;;;4927599;29;20524;-68
2022/05/25 16:13:19;;;;;;;0.90;0.90;;;20.30;88.40;;;;;;4933714;29;20465;-68
2022/05/25 16:15:46;;;;;;;1.20;0.93;;;20.30;88.30;;;;;;4929939;29;20497;-68
2022/05/25 16:18:12;;;;;;;1.10;1.10;;;20.20;88.60;;;;;;4929112;29;20457;-68
2022/05/25 16:20:41;;;;;;;1.00;1.00;;;20.20;89.10;;;;;;4943012;29;20491;-68
2022/05/25 16:23:08;;;;;;;1.27;1.27;;;20.10;89.40;;;;;;4950758;28;20580;-68
2022/05/25 16:25:35;;;;;;;0.80;0.80;;;20.20;89.60;;;;;;4931994;29;20470;-68
2022/05/25 16:28:02;;;;;;;1.00;1.00;;;20.20;89.30;;;;;;4929371;29;20544;-68
2022/05/25 16:30:28;;;;;;;1.30;1.20;;;20.10;89.00;;;;;;4941242;28;20502;-68
2022/05/25 16:32:55;;;;;;;1.10;1.10;;;20.10;89.50;;;;;;4953370;28;20460;-68
2022/05/25 16:35:22;;;;;;;1.10;1.10;;;20.00;88.80;;;;;;4934212;28;20508;-68
2022/05/25 16:37:50;;;;;;;0.70;0.70;;;19.90;89.30;;;;;;4942981;28;20480;-68
2022/05/25 16:40:18;;;;;;;2.73;0.93;;;19.80;90.00;;;;;;4943563;28;20947;-70
2022/05/25 16:42:46;;;;;;;1.30;1.20;;;19.80;90.20;;;;;;4934188;29;20482;-68
2022/05/25 16:45:14;;;;;;;1.30;1.30;;;19.70;92.00;;;;;;4933670;29;21098;-68
2022/05/25 16:47:41;;;;;;;2.53;1.50;;;19.50;94.10;;;;;;4932655;29;20470;-68
2022/05/25 16:50:11;;;;;;;0.90;0.90;;;19.30;95.10;;;;;;4932526;29;20469;-67
2022/05/25 16:52:38;;;;;;;1.30;1.30;;;19.10;96.00;;;;;;4935968;29;20493;-67
2022/05/25 16:55:08;;;;;;;1.40;1.30;;;19.00;96.70;;;;;;4939071;28;20545;-68
2022/05/25 16:57:35;;;;;;;1.57;1.47;;;19.00;97.70;;;;;;4941201;29;20468;-67
2022/05/25 17:00:03;;;;;;;1.40;1.30;;;18.90;98.00;;;;;;4928343;29;20872;-68
2022/05/25 17:02:30;;;;;;;0.97;0.97;;;18.90;98.10;;;;;;4930752;29;20505;-68
2022/05/25 17:04:57;;;;;;;4.00;1.30;;;18.80;98.40;;;;;;4942873;29;20901;-68
2022/05/25 17:07:24;;;;;;;1.33;1.23;;;18.80;97.60;;;;;;4947700;29;20476;-68
2022/05/25 17:09:51;;;;;;;1.43;1.43;;;18.80;98.10;;;;;;4943982;28;20506;-68
2022/05/25 17:12:19;;;;;;;1.80;1.70;;;18.80;98.00;;;;;;4935724;29;20584;-68
2022/05/25 17:14:46;;;;;;;1.63;1.57;;;18.80;97.20;;;;;;4925052;29;20572;-68
2022/05/25 17:17:12;;;;;;;1.20;1.20;;;18.90;95.70;;;;;;4932006;29;20469;-68
2022/05/25 17:22:23;;;;;;;1.40;1.40;;;18.90;95.80;;;;;;4935889;28;21002;-68
2022/05/25 17:24:50;;;;;;;2.37;1.80;;;18.70;97.90;;;;;;4927937;29;20796;-68
2022/05/25 17:27:20;;;;;;;2.00;2.00;;;18.60;99.90;;;;;;4928123;29;20908;-68
2022/05/25 17:29:48;;;;;;;2.40;2.10;;;18.30;99.90;;;;;;4931196;29;20808;-68
2022/05/25 17:32:17;;;;;;;2.20;2.10;;;18.00;99.90;;;;;;4929945;29;20519;-67
2022/05/25 17:34:43;;;;;;;2.43;2.00;;;17.80;99.90;;;;;;4953574;23;21603;-74
2022/05/25 17:42:47;;;;;;;3.33;3.23;;;17.00;99.90;;;;;;4935535;29;20537;-74
2022/05/25 17:45:14;;;;;;;3.80;3.60;;;16.90;99.90;;;;;;4934328;29;20986;-73
2022/05/25 17:47:41;;;;;;;3.60;3.50;;;16.70;99.90;;;;;;4928218;29;20480;-74
2022/05/25 17:50:08;;;;;;;4.10;4.00;;;16.60;99.90;;;;;;4925029;29;20469;-73
2022/05/25 17:52:35;;;;;;;4.10;3.90;;;16.70;99.90;;;;;;4934879;29;20476;-73